sensor_id;sensor_type;location;lat;lon;timestamp;pressure;altitude;pressure_sealevel;temperature;humidity
38630;BME280;24384;51.988;4.644;2023-04-08T00:00:44;102363.06;;;9.05;90.86
38630;BME280;24384;51.988;4.644;2023-04-08T00:03:10;102363.97;;;8.98;91.49
38630;BME280;24384;51.988;4.644;2023-04-08T00:05:35;102367.47;;;9.00;91.66
38630;BME280;24384;51.988;4.644;2023-04-08T00:08:00;102369.22;;;9.01;91.62
38630;BME280;24384;51.988;4.644;2023-04-08T00:10:26;102356.94;;;9.01;91.92
38630;BME280;24384;51.988;4.644;2023-04-08T00:12:51;102357.81;;;9.02;92.01
38630;BME280;24384;51.988;4.644;2023-04-08T00:15:16;102358.69;;;9.07;91.68
38630;BME280;24384;51.988;4.644;2023-04-08T00:17:42;102363.97;;;9.01;91.76
38630;BME280;24384;51.988;4.644;2023-04-08T00:20:07;102365.69;;;9.06;92.10
38630;BME280;24384;51.988;4.644;2023-04-08T00:22:32;102363.97;;;9.05;92.02
38630;BME280;24384;51.988;4.644;2023-04-08T00:24:57;102363.06;;;9.00;92.08
38630;BME280;24384;51.988;4.644;2023-04-08T00:27:23;102360.44;;;8.94;92.64
38630;BME280;24384;51.988;4.644;2023-04-08T00:29:51;102358.72;;;8.98;92.66
38630;BME280;24384;51.988;4.644;2023-04-08T00:32:17;102366.63;;;8.91;92.80
38630;BME280;24384;51.988;4.644;2023-04-08T00:34:42;102363.06;;;8.97;92.59
38630;BME280;24384;51.988;4.644;2023-04-08T00:37:08;102362.22;;;8.92;93.00
38630;BME280;24384;51.988;4.644;2023-04-08T00:39:33;102364.81;;;9.01;92.96
38630;BME280;24384;51.988;4.644;2023-04-08T00:41:58;102359.56;;;8.98;93.23
38630;BME280;24384;51.988;4.644;2023-04-08T00:44:23;102365.69;;;8.99;93.05
38630;BME280;24384;51.988;4.644;2023-04-08T00:46:49;102369.25;;;8.96;93.15
38630;BME280;24384;51.988;4.644;2023-04-08T00:49:14;102367.47;;;8.95;93.64
38630;BME280;24384;51.988;4.644;2023-04-08T00:51:41;102365.69;;;9.00;93.16
38630;BME280;24384;51.988;4.644;2023-04-08T00:54:06;102369.22;;;8.99;93.25
38630;BME280;24384;51.988;4.644;2023-04-08T00:56:31;102373.59;;;9.03;93.53
38630;BME280;24384;51.988;4.644;2023-04-08T00:58:59;102375.38;;;8.98;93.61
38630;BME280;24384;51.988;4.644;2023-04-08T01:01:33;102381.47;;;9.05;92.71
38630;BME280;24384;51.988;4.644;2023-04-08T01:09:13;102370.09;;;9.06;93.10
38630;BME280;24384;51.988;4.644;2023-04-08T01:11:42;102375.38;;;8.95;93.42
38630;BME280;24384;51.988;4.644;2023-04-08T01:14:08;102371.88;;;8.98;93.71
38630;BME280;24384;51.988;4.644;2023-04-08T01:16:34;102373.59;;;8.99;93.57
38630;BME280;24384;51.988;4.644;2023-04-08T01:19:02;102375.38;;;8.98;93.79
38630;BME280;24384;51.988;4.644;2023-04-08T01:21:29;102385.03;;;8.91;94.09
38630;BME280;24384;51.988;4.644;2023-04-08T01:26:29;102382.41;;;8.93;93.87
38630;BME280;24384;51.988;4.644;2023-04-08T01:28:55;102381.50;;;8.83;94.43
38630;BME280;24384;51.988;4.644;2023-04-08T01:31:21;102386.78;;;8.78;94.47
38630;BME280;24384;51.988;4.644;2023-04-08T01:33:48;102388.53;;;8.93;94.13
38630;BME280;24384;51.988;4.644;2023-04-08T01:36:14;102383.28;;;8.89;94.32
38630;BME280;24384;51.988;4.644;2023-04-08T01:38:40;102382.41;;;8.87;94.21
38630;BME280;24384;51.988;4.644;2023-04-08T01:41:08;102378.00;;;8.90;93.96
38630;BME280;24384;51.988;4.644;2023-04-08T01:43:34;102377.16;;;8.79;94.39
38630;BME280;24384;51.988;4.644;2023-04-08T01:45:59;102373.63;;;8.80;94.25
38630;BME280;24384;51.988;4.644;2023-04-08T01:48:27;102381.53;;;8.80;94.53
38630;BME280;24384;51.988;4.644;2023-04-08T01:50:54;102385.91;;;8.86;94.30
38630;BME280;24384;51.988;4.644;2023-04-08T01:53:20;102378.88;;;8.78;94.19
38630;BME280;24384;51.988;4.644;2023-04-08T01:55:46;102388.53;;;8.78;94.49
38630;BME280;24384;51.988;4.644;2023-04-08T01:58:17;102388.56;;;8.72;94.38
38630;BME280;24384;51.988;4.644;2023-04-08T02:00:43;102392.06;;;8.68;94.94
38630;BME280;24384;51.988;4.644;2023-04-08T02:03:09;102390.31;;;8.73;94.82
38630;BME280;24384;51.988;4.644;2023-04-08T02:05:36;102386.78;;;8.72;94.24
38630;BME280;24384;51.988;4.644;2023-04-08T02:08:01;102388.56;;;8.73;94.56
38630;BME280;24384;51.988;4.644;2023-04-08T02:10:26;102386.78;;;8.63;94.84
38630;BME280;24384;51.988;4.644;2023-04-08T02:12:51;102394.69;;;8.69;94.62
38630;BME280;24384;51.988;4.644;2023-04-08T02:15:16;102402.56;;;8.68;94.43
38630;BME280;24384;51.988;4.644;2023-04-08T02:20:09;102396.44;;;8.75;94.49
38630;BME280;24384;51.988;4.644;2023-04-08T02:23:18;102395.56;;;8.70;94.71
38630;BME280;24384;51.988;4.644;2023-04-08T02:25:23;102397.31;;;8.63;94.65
38630;BME280;24384;51.988;4.644;2023-04-08T02:27:50;102397.31;;;8.58;95.30
38630;BME280;24384;51.988;4.644;2023-04-08T02:30:16;102392.06;;;8.60;95.00
38630;BME280;24384;51.988;4.644;2023-04-08T02:32:42;102390.31;;;8.64;94.75
38630;BME280;24384;51.988;4.644;2023-04-08T02:35:08;102386.78;;;8.66;94.65
38630;BME280;24384;51.988;4.644;2023-04-08T02:37:35;102387.69;;;8.59;94.94
38630;BME280;24384;51.988;4.644;2023-04-08T02:40:00;102393.81;;;8.53;94.85
38630;BME280;24384;51.988;4.644;2023-04-08T02:42:25;102393.81;;;8.47;94.98
38630;BME280;24384;51.988;4.644;2023-04-08T02:44:50;102389.41;;;8.52;94.76
38630;BME280;24384;51.988;4.644;2023-04-08T02:47:16;102391.19;;;8.44;94.77
38630;BME280;24384;51.988;4.644;2023-04-08T02:49:42;102395.53;;;8.33;94.84
38630;BME280;24384;51.988;4.644;2023-04-08T02:52:07;102392.88;;;8.25;94.86
38630;BME280;24384;51.988;4.644;2023-04-08T02:54:32;102396.38;;;8.29;94.49
38630;BME280;24384;51.988;4.644;2023-04-08T02:56:58;102408.66;;;8.20;94.04
38630;BME280;24384;51.988;4.644;2023-04-08T02:59:23;102414.75;;;8.13;94.40
38630;BME280;24384;51.988;4.644;2023-04-08T03:01:48;102408.66;;;8.25;94.12
38630;BME280;24384;51.988;4.644;2023-04-08T03:04:13;102406.88;;;8.16;94.46
38630;BME280;24384;51.988;4.644;2023-04-08T03:06:39;102407.75;;;8.21;94.82
38630;BME280;24384;51.988;4.644;2023-04-08T03:09:04;102410.38;;;8.21;94.94
38630;BME280;24384;51.988;4.644;2023-04-08T03:11:30;102407.75;;;8.24;94.49
38630;BME280;24384;51.988;4.644;2023-04-08T03:13:55;102413.03;;;8.28;94.67
38630;BME280;24384;51.988;4.644;2023-04-08T03:16:20;102418.28;;;8.31;94.09
38630;BME280;24384;51.988;4.644;2023-04-08T03:18:45;102420.91;;;8.31;94.40
38630;BME280;24384;51.988;4.644;2023-04-08T03:21:11;102413.03;;;8.34;94.44
38630;BME280;24384;51.988;4.644;2023-04-08T03:23:36;102416.56;;;8.36;94.78
38630;BME280;24384;51.988;4.644;2023-04-08T03:26:01;102416.53;;;8.23;95.48
38630;BME280;24384;51.988;4.644;2023-04-08T03:28:26;102416.56;;;8.30;95.00
38630;BME280;24384;51.988;4.644;2023-04-08T03:30:51;102423.53;;;8.31;95.05
38630;BME280;24384;51.988;4.644;2023-04-08T03:33:17;102419.19;;;8.27;95.37
38630;BME280;24384;51.988;4.644;2023-04-08T03:35:42;102418.28;;;8.29;95.46
38630;BME280;24384;51.988;4.644;2023-04-08T03:38:07;102422.69;;;8.39;95.04
38630;BME280;24384;51.988;4.644;2023-04-08T03:40:32;102418.28;;;8.31;95.64
38630;BME280;24384;51.988;4.644;2023-04-08T03:42:57;102429.69;;;8.33;95.65
38630;BME280;24384;51.988;4.644;2023-04-08T03:45:23;102416.56;;;8.33;95.74
38630;BME280;24384;51.988;4.644;2023-04-08T03:47:48;102427.94;;;8.30;95.46
38630;BME280;24384;51.988;4.644;2023-04-08T03:50:13;102431.44;;;8.32;95.66
38630;BME280;24384;51.988;4.644;2023-04-08T03:52:38;102431.44;;;8.31;95.50
38630;BME280;24384;51.988;4.644;2023-04-08T03:55:04;102433.19;;;8.25;96.14
38630;BME280;24384;51.988;4.644;2023-04-08T03:57:31;102447.19;;;8.31;95.86
38630;BME280;24384;51.988;4.644;2023-04-08T03:59:57;102441.94;;;8.26;95.73
38630;BME280;24384;51.988;4.644;2023-04-08T04:02:22;102443.72;;;8.35;95.69
38630;BME280;24384;51.988;4.644;2023-04-08T04:04:48;102441.94;;;8.31;95.74
38630;BME280;24384;51.988;4.644;2023-04-08T04:07:13;102447.22;;;8.35;95.04
38630;BME280;24384;51.988;4.644;2023-04-08T04:09:39;102456.00;;;8.40;95.02
38630;BME280;24384;51.988;4.644;2023-04-08T04:12:04;102449.84;;;8.37;94.42
38630;BME280;24384;51.988;4.644;2023-04-08T04:14:31;102457.72;;;8.28;94.83
38630;BME280;24384;51.988;4.644;2023-04-08T04:16:56;102457.72;;;8.34;94.63
38630;BME280;24384;51.988;4.644;2023-04-08T04:19:21;102448.97;;;8.38;93.80
38630;BME280;24384;51.988;4.644;2023-04-08T04:21:46;102455.09;;;8.28;94.15
38630;BME280;24384;51.988;4.644;2023-04-08T04:24:12;102455.97;;;8.23;94.05
38630;BME280;24384;51.988;4.644;2023-04-08T04:26:39;102459.44;;;8.16;94.36
38630;BME280;24384;51.988;4.644;2023-04-08T04:29:04;102457.66;;;8.07;95.02
38630;BME280;24384;51.988;4.644;2023-04-08T04:31:29;102462.03;;;8.01;95.50
38630;BME280;24384;51.988;4.644;2023-04-08T04:33:54;102462.03;;;8.01;95.70
38630;BME280;24384;51.988;4.644;2023-04-08T04:36:20;102457.63;;;7.98;95.47
38630;BME280;24384;51.988;4.644;2023-04-08T04:38:45;102472.50;;;7.93;95.52
38630;BME280;24384;51.988;4.644;2023-04-08T04:41:10;102474.22;;;7.82;95.51
38630;BME280;24384;51.988;4.644;2023-04-08T04:43:38;102470.72;;;7.87;95.40
38630;BME280;24384;51.988;4.644;2023-04-08T04:46:03;102476.81;;;7.76;95.87
38630;BME280;24384;51.988;4.644;2023-04-08T04:48:31;102474.13;;;7.65;96.57
38630;BME280;24384;51.988;4.644;2023-04-08T04:50:57;102479.38;;;7.65;96.89
38630;BME280;24384;51.988;4.644;2023-04-08T04:53:23;102483.78;;;7.75;96.05
38630;BME280;24384;51.988;4.644;2023-04-08T04:55:49;102489.91;;;7.71;96.12
38630;BME280;24384;51.988;4.644;2023-04-08T04:58:16;102488.13;;;7.65;96.16
38630;BME280;24384;51.988;4.644;2023-04-08T05:00:42;102496.09;;;7.81;95.11
38630;BME280;24384;51.988;4.644;2023-04-08T05:03:07;102496.91;;;7.72;94.34
38630;BME280;24384;51.988;4.644;2023-04-08T05:05:33;102501.28;;;7.70;93.95
38630;BME280;24384;51.988;4.644;2023-04-08T05:07:58;102494.25;;;7.67;94.55
38630;BME280;24384;51.988;4.644;2023-04-08T05:10:23;102498.59;;;7.58;95.41
38630;BME280;24384;51.988;4.644;2023-04-08T05:12:48;102492.50;;;7.60;95.03
38630;BME280;24384;51.988;4.644;2023-04-08T05:15:14;102498.59;;;7.61;95.38
38630;BME280;24384;51.988;4.644;2023-04-08T05:17:39;102503.88;;;7.64;95.07
38630;BME280;24384;51.988;4.644;2023-04-08T05:20:05;102499.47;;;7.63;95.43
38630;BME280;24384;51.988;4.644;2023-04-08T05:22:30;102513.53;;;7.65;95.58
38630;BME280;24384;51.988;4.644;2023-04-08T05:24:56;102499.53;;;7.69;95.46
38630;BME280;24384;51.988;4.644;2023-04-08T05:27:21;102506.53;;;7.71;95.82
38630;BME280;24384;51.988;4.644;2023-04-08T05:29:46;102514.44;;;7.73;95.61
38630;BME280;24384;51.988;4.644;2023-04-08T05:32:11;102510.84;;;7.56;95.57
38630;BME280;24384;51.988;4.644;2023-04-08T05:34:36;102515.22;;;7.61;95.43
38630;BME280;24384;51.988;4.644;2023-04-08T05:37:02;102512.63;;;7.63;95.41
38630;BME280;24384;51.988;4.644;2023-04-08T05:39:27;102518.69;;;7.52;96.24
38630;BME280;24384;51.988;4.644;2023-04-08T05:41:52;102520.44;;;7.52;96.30
38630;BME280;24384;51.988;4.644;2023-04-08T05:44:17;102531.00;;;7.61;96.62
38630;BME280;24384;51.988;4.644;2023-04-08T05:46:42;102531.97;;;7.74;95.76
38630;BME280;24384;51.988;4.644;2023-04-08T05:49:08;102525.81;;;7.77;95.90
38630;BME280;24384;51.988;4.644;2023-04-08T05:51:33;102528.50;;;7.84;94.85
38630;BME280;24384;51.988;4.644;2023-04-08T05:53:58;102535.50;;;7.81;95.56
38630;BME280;24384;51.988;4.644;2023-04-08T05:56:23;102532.00;;;7.83;95.51
38630;BME280;24384;51.988;4.644;2023-04-08T05:58:49;102534.63;;;7.83;96.18
38630;BME280;24384;51.988;4.644;2023-04-08T06:01:14;102539.94;;;7.89;95.66
38630;BME280;24384;51.988;4.644;2023-04-08T06:03:40;102536.31;;;7.75;96.03
38630;BME280;24384;51.988;4.644;2023-04-08T06:06:09;102549.56;;;7.92;96.16
38630;BME280;24384;51.988;4.644;2023-04-08T06:08:35;102546.97;;;8.01;95.47
38630;BME280;24384;51.988;4.644;2023-04-08T06:11:00;102549.56;;;7.95;94.96
38630;BME280;24384;51.988;4.644;2023-04-08T06:13:28;102553.00;;;7.79;95.13
38630;BME280;24384;51.988;4.644;2023-04-08T06:15:53;102553.91;;;7.85;95.36
38630;BME280;24384;51.988;4.644;2023-04-08T06:18:18;102560.03;;;7.84;95.00
38630;BME280;24384;51.988;4.644;2023-04-08T06:20:43;102560.06;;;7.94;95.10
38630;BME280;24384;51.988;4.644;2023-04-08T06:23:08;102558.34;;;7.96;94.42
38630;BME280;24384;51.988;4.644;2023-04-08T06:25:34;102561.84;;;7.96;94.76
38630;BME280;24384;51.988;4.644;2023-04-08T06:27:59;102561.84;;;7.95;95.44
38630;BME280;24384;51.988;4.644;2023-04-08T06:30:24;102562.75;;;8.01;95.22
38630;BME280;24384;51.988;4.644;2023-04-08T06:32:49;102571.50;;;7.99;95.70
38630;BME280;24384;51.988;4.644;2023-04-08T06:35:14;102584.69;;;8.05;95.08
38630;BME280;24384;51.988;4.644;2023-04-08T06:37:40;102577.63;;;8.01;94.66
38630;BME280;24384;51.988;4.644;2023-04-08T06:40:05;102580.22;;;7.93;95.55
38630;BME280;24384;51.988;4.644;2023-04-08T06:42:31;102591.53;;;7.81;96.15
38630;BME280;24384;51.988;4.644;2023-04-08T06:44:56;102588.91;;;7.81;95.82
38630;BME280;24384;51.988;4.644;2023-04-08T06:47:22;102592.47;;;7.91;96.05
38630;BME280;24384;51.988;4.644;2023-04-08T06:49:47;102592.44;;;7.85;96.76
38630;BME280;24384;51.988;4.644;2023-04-08T06:52:12;102592.50;;;7.94;96.50
38630;BME280;24384;51.988;4.644;2023-04-08T06:54:37;102596.91;;;8.01;96.15
38630;BME280;24384;51.988;4.644;2023-04-08T06:57:02;102588.16;;;8.04;95.86
38630;BME280;24384;51.988;4.644;2023-04-08T06:59:28;102596.97;;;8.17;95.63
38630;BME280;24384;51.988;4.644;2023-04-08T07:01:54;102600.50;;;8.17;95.67
38630;BME280;24384;51.988;4.644;2023-04-08T07:04:19;102597.97;;;8.39;95.40
38630;BME280;24384;51.988;4.644;2023-04-08T07:06:45;102606.72;;;8.39;95.68
38630;BME280;24384;51.988;4.644;2023-04-08T07:09:10;102610.25;;;8.43;95.90
38630;BME280;24384;51.988;4.644;2023-04-08T07:11:36;102603.34;;;8.57;95.72
38630;BME280;24384;51.988;4.644;2023-04-08T07:14:01;102608.63;;;8.62;95.38
38630;BME280;24384;51.988;4.644;2023-04-08T07:16:26;102613.91;;;8.76;95.14
38630;BME280;24384;51.988;4.644;2023-04-08T07:18:52;102611.31;;;8.82;94.75
38630;BME280;24384;51.988;4.644;2023-04-08T07:21:17;102616.59;;;8.93;94.67
38630;BME280;24384;51.988;4.644;2023-04-08T07:23:42;102618.34;;;9.08;92.63
38630;BME280;24384;51.988;4.644;2023-04-08T07:26:08;102616.63;;;9.04;92.25
38630;BME280;24384;51.988;4.644;2023-04-08T07:28:33;102618.38;;;9.20;92.24
38630;BME280;24384;51.988;4.644;2023-04-08T07:31:09;102622.78;;;9.20;92.55
38630;BME280;24384;51.988;4.644;2023-04-08T07:33:35;102630.66;;;9.20;91.93
38630;BME280;24384;51.988;4.644;2023-04-08T07:36:00;102632.44;;;9.22;91.59
38630;BME280;24384;51.988;4.644;2023-04-08T07:38:26;102628.03;;;9.27;91.01
38630;BME280;24384;51.988;4.644;2023-04-08T07:40:51;102635.09;;;9.44;90.91
38630;BME280;24384;51.988;4.644;2023-04-08T07:43:17;102631.56;;;9.39;90.73
38630;BME280;24384;51.988;4.644;2023-04-08T07:45:42;102639.44;;;9.37;91.13
38630;BME280;24384;51.988;4.644;2023-04-08T07:48:07;102637.72;;;9.59;90.69
38630;BME280;24384;51.988;4.644;2023-04-08T07:50:34;102631.53;;;9.73;89.23
38630;BME280;24384;51.988;4.644;2023-04-08T07:53:00;102635.94;;;9.83;89.41
38630;BME280;24384;51.988;4.644;2023-04-08T07:55:25;102636.81;;;9.80;89.71
38630;BME280;24384;51.988;4.644;2023-04-08T07:57:50;102635.94;;;9.89;89.05
38630;BME280;24384;51.988;4.644;2023-04-08T08:00:16;102642.06;;;9.80;89.54
38630;BME280;24384;51.988;4.644;2023-04-08T08:02:45;102642.97;;;9.87;90.33
38630;BME280;24384;51.988;4.644;2023-04-08T08:05:11;102647.31;;;10.00;89.23
38630;BME280;24384;51.988;4.644;2023-04-08T08:07:37;102649.09;;;10.06;88.56
38630;BME280;24384;51.988;4.644;2023-04-08T08:10:02;102655.25;;;9.90;89.31
38630;BME280;24384;51.988;4.644;2023-04-08T08:12:28;102655.22;;;10.00;88.69
38630;BME280;24384;51.988;4.644;2023-04-08T08:14:54;102663.09;;;10.14;88.17
38630;BME280;24384;51.988;4.644;2023-04-08T08:17:22;102663.13;;;10.03;89.31
38630;BME280;24384;51.988;4.644;2023-04-08T08:19:48;102663.13;;;10.11;89.28
38630;BME280;24384;51.988;4.644;2023-04-08T08:22:14;102664.84;;;10.31;88.43
38630;BME280;24384;51.988;4.644;2023-04-08T08:24:39;102664.00;;;10.18;88.27
38630;BME280;24384;51.988;4.644;2023-04-08T08:27:04;102662.22;;;10.37;87.96
38630;BME280;24384;51.988;4.644;2023-04-08T08:29:30;102661.25;;;10.56;87.16
38630;BME280;24384;51.988;4.644;2023-04-08T08:31:55;102662.94;;;10.73;85.83
38630;BME280;24384;51.988;4.644;2023-04-08T08:34:20;102664.72;;;10.69;85.83
38630;BME280;24384;51.988;4.644;2023-04-08T08:36:46;102668.19;;;10.81;86.15
38630;BME280;24384;51.988;4.644;2023-04-08T08:39:11;102663.81;;;10.77;85.00
38630;BME280;24384;51.988;4.644;2023-04-08T08:41:36;102671.69;;;10.81;84.15
38630;BME280;24384;51.988;4.644;2023-04-08T08:44:01;102669.66;;;11.31;82.92
38630;BME280;24384;51.988;4.644;2023-04-08T08:46:29;102675.53;;;11.67;79.89
38630;BME280;24384;51.988;4.644;2023-04-08T08:48:54;102683.75;;;11.30;80.63
38630;BME280;24384;51.988;4.644;2023-04-08T08:51:20;102674.09;;;11.24;81.06
38630;BME280;24384;51.988;4.644;2023-04-08T08:53:46;102677.63;;;11.28;80.87
38630;BME280;24384;51.988;4.644;2023-04-08T08:56:11;102680.31;;;11.17;82.07
38630;BME280;24384;51.988;4.644;2023-04-08T08:58:36;102675.81;;;11.32;80.65
38630;BME280;24384;51.988;4.644;2023-04-08T09:01:24;102669.50;;;11.54;81.15
38630;BME280;24384;51.988;4.644;2023-04-08T09:03:49;102673.88;;;11.55;80.88
38630;BME280;24384;51.988;4.644;2023-04-08T09:06:30;102669.44;;;11.62;78.95
38630;BME280;24384;51.988;4.644;2023-04-08T09:08:56;102679.84;;;11.80;79.20
38630;BME280;24384;51.988;4.644;2023-04-08T09:11:21;102682.19;;;12.17;77.44
38630;BME280;24384;51.988;4.644;2023-04-08T09:13:46;102688.38;;;12.12;77.82
38630;BME280;24384;51.988;4.644;2023-04-08T09:16:15;102683.66;;;12.42;76.20
38630;BME280;24384;51.988;4.644;2023-04-08T09:18:42;102690.50;;;12.60;73.58
38630;BME280;24384;51.988;4.644;2023-04-08T09:21:08;102691.75;;;13.01;73.48
38630;BME280;24384;51.988;4.644;2023-04-08T09:26:13;102684.78;;;12.94;71.15
38630;BME280;24384;51.988;4.644;2023-04-08T09:28:39;102684.75;;;13.57;71.82
38630;BME280;24384;51.988;4.644;2023-04-08T09:31:18;102685.81;;;13.99;69.96
38630;BME280;24384;51.988;4.644;2023-04-08T09:33:44;102683.78;;;14.61;66.00
38630;BME280;24384;51.988;4.644;2023-04-08T09:36:10;102681.00;;;14.67;65.12
38630;BME280;24384;51.988;4.644;2023-04-08T09:38:35;102680.47;;;14.92;64.42
38630;BME280;24384;51.988;4.644;2023-04-08T09:41:01;102688.97;;;14.67;64.89
38630;BME280;24384;51.988;4.644;2023-04-08T09:43:30;102677.91;;;15.27;64.16
38630;BME280;24384;51.988;4.644;2023-04-08T09:45:57;102681.84;;;15.48;62.68
38630;BME280;24384;51.988;4.644;2023-04-08T09:48:25;102681.78;;;15.51;63.16
38630;BME280;24384;51.988;4.644;2023-04-08T09:50:52;102684.31;;;15.55;63.76
38630;BME280;24384;51.988;4.644;2023-04-08T09:53:33;102685.06;;;15.61;61.37
38630;BME280;24384;51.988;4.644;2023-04-08T09:55:59;102685.31;;;15.87;61.26
38630;BME280;24384;51.988;4.644;2023-04-08T09:58:27;102687.50;;;16.04;61.12
38630;BME280;24384;51.988;4.644;2023-04-08T10:00:53;102692.59;;;16.14;61.27
38630;BME280;24384;51.988;4.644;2023-04-08T10:06:02;102683.34;;;16.58;57.02
38630;BME280;24384;51.988;4.644;2023-04-08T10:08:28;102678.94;;;16.89;59.15
38630;BME280;24384;51.988;4.644;2023-04-08T10:10:54;102675.75;;;17.06;57.71
38630;BME280;24384;51.988;4.644;2023-04-08T10:13:20;102673.66;;;17.15;57.62
38630;BME280;24384;51.988;4.644;2023-04-08T10:15:45;102671.88;;;17.44;55.41
38630;BME280;24384;51.988;4.644;2023-04-08T10:23:04;102676.94;;;17.24;54.96
38630;BME280;24384;51.988;4.644;2023-04-08T10:25:31;102678.22;;;17.40;54.46
38630;BME280;24384;51.988;4.644;2023-04-08T10:27:58;102675.28;;;17.48;54.16
38630;BME280;24384;51.988;4.644;2023-04-08T10:32:51;102677.06;;;18.01;53.73
38630;BME280;24384;51.988;4.644;2023-04-08T10:35:20;102672.66;;;18.25;53.06
38630;BME280;24384;51.988;4.644;2023-04-08T10:37:52;102667.81;;;18.11;52.67
38630;BME280;24384;51.988;4.644;2023-04-08T10:40:18;102663.22;;;18.64;54.41
38630;BME280;24384;51.988;4.644;2023-04-08T10:42:43;102659.41;;;18.71;51.59
38630;BME280;24384;51.988;4.644;2023-04-08T10:45:09;102660.25;;;18.71;50.60
38630;BME280;24384;51.988;4.644;2023-04-08T10:47:34;102662.44;;;18.85;51.11
38630;BME280;24384;51.988;4.644;2023-04-08T10:49:59;102663.69;;;18.99;49.47
38630;BME280;24384;51.988;4.644;2023-04-08T10:52:25;102654.44;;;19.29;48.18
38630;BME280;24384;51.988;4.644;2023-04-08T10:54:51;102660.91;;;19.66;45.74
38630;BME280;24384;51.988;4.644;2023-04-08T10:57:22;102649.81;;;19.76;45.31
38630;BME280;24384;51.988;4.644;2023-04-08T10:59:48;102650.56;;;20.20;46.62
38630;BME280;24384;51.988;4.644;2023-04-08T11:02:13;102654.31;;;20.35;44.22
38630;BME280;24384;51.988;4.644;2023-04-08T11:04:43;102656.34;;;20.30;42.56
38630;BME280;24384;51.988;4.644;2023-04-08T11:07:08;102653.16;;;20.22;43.48
38630;BME280;24384;51.988;4.644;2023-04-08T11:09:33;102646.44;;;20.32;43.98
38630;BME280;24384;51.988;4.644;2023-04-08T11:11:59;102659.31;;;20.24;43.36
38630;BME280;24384;51.988;4.644;2023-04-08T11:14:26;102658.47;;;20.24;43.39
38630;BME280;24384;51.988;4.644;2023-04-08T11:16:51;102657.19;;;20.12;44.38
38630;BME280;24384;51.988;4.644;2023-04-08T11:19:16;102654.13;;;20.40;44.98
38630;BME280;24384;51.988;4.644;2023-04-08T11:21:42;102652.75;;;20.50;42.23
38630;BME280;24384;51.988;4.644;2023-04-08T11:24:10;102651.72;;;20.73;41.35
38630;BME280;24384;51.988;4.644;2023-04-08T11:26:36;102659.22;;;21.03;42.91
38630;BME280;24384;51.988;4.644;2023-04-08T11:29:01;102648.66;;;21.37;41.79
38630;BME280;24384;51.988;4.644;2023-04-08T11:31:27;102660.63;;;21.29;40.61
38630;BME280;24384;51.988;4.644;2023-04-08T11:33:53;102658.56;;;21.54;39.60
38630;BME280;24384;51.988;4.644;2023-04-08T11:36:20;102656.50;;;21.59;42.41
38630;BME280;24384;51.988;4.644;2023-04-08T11:38:45;102648.19;;;21.81;38.76
38630;BME280;24384;51.988;4.644;2023-04-08T11:41:11;102652.31;;;21.88;36.47
38630;BME280;24384;51.988;4.644;2023-04-08T11:43:37;102646.22;;;21.67;37.03
38630;BME280;24384;51.988;4.644;2023-04-08T11:46:13;102643.47;;;21.86;37.39
38630;BME280;24384;51.988;4.644;2023-04-08T11:48:39;102648.00;;;22.19;32.82
38630;BME280;24384;51.988;4.644;2023-04-08T11:51:05;102640.06;;;22.33;38.41
38630;BME280;24384;51.988;4.644;2023-04-08T11:53:34;102640.16;;;22.32;34.01
38630;BME280;24384;51.988;4.644;2023-04-08T11:56:15;102644.28;;;22.22;35.45
38630;BME280;24384;51.988;4.644;2023-04-08T11:58:41;102638.78;;;22.41;33.25
38630;BME280;24384;51.988;4.644;2023-04-08T12:01:06;102643.72;;;22.32;34.13
38630;BME280;24384;51.988;4.644;2023-04-08T12:03:31;102636.81;;;22.76;35.14
38630;BME280;24384;51.988;4.644;2023-04-08T12:05:58;102633.91;;;23.13;33.45
38630;BME280;24384;51.988;4.644;2023-04-08T12:08:23;102636.28;;;23.64;36.42
38630;BME280;24384;51.988;4.644;2023-04-08T12:10:50;102634.91;;;23.87;36.37
38630;BME280;24384;51.988;4.644;2023-04-08T12:13:15;102632.81;;;24.21;32.97
38630;BME280;24384;51.988;4.644;2023-04-08T12:15:40;102630.13;;;24.64;31.27
38630;BME280;24384;51.988;4.644;2023-04-08T12:18:06;102638.88;;;24.53;28.47
38630;BME280;24384;51.988;4.644;2023-04-08T12:20:31;102620.69;;;25.11;31.58
38630;BME280;24384;51.988;4.644;2023-04-08T12:22:56;102622.25;;;25.55;30.56
38630;BME280;24384;51.988;4.644;2023-04-08T12:25:21;102633.94;;;25.69;27.34
38630;BME280;24384;51.988;4.644;2023-04-08T12:27:49;102627.06;;;26.03;26.43
38630;BME280;24384;51.988;4.644;2023-04-08T12:30:14;102616.13;;;26.68;28.09
38630;BME280;24384;51.988;4.644;2023-04-08T12:32:40;102621.41;;;26.82;27.27
38630;BME280;24384;51.988;4.644;2023-04-08T12:35:06;102625.47;;;26.51;24.21
38630;BME280;24384;51.988;4.644;2023-04-08T12:37:32;102620.13;;;27.59;27.51
38630;BME280;24384;51.988;4.644;2023-04-08T12:39:57;102618.06;;;27.85;29.01
38630;BME280;24384;51.988;4.644;2023-04-08T12:42:22;102618.66;;;28.24;26.90
38630;BME280;24384;51.988;4.644;2023-04-08T12:44:47;102611.72;;;29.30;27.81
38630;BME280;24384;51.988;4.644;2023-04-08T12:47:13;102617.16;;;29.93;25.98
38630;BME280;24384;51.988;4.644;2023-04-08T12:49:38;102619.16;;;29.70;27.40
38630;BME280;24384;51.988;4.644;2023-04-08T12:52:03;102614.38;;;29.20;24.81
38630;BME280;24384;51.988;4.644;2023-04-08T12:54:29;102616.31;;;29.29;28.90
38630;BME280;24384;51.988;4.644;2023-04-08T12:56:55;102611.16;;;29.90;26.33
38630;BME280;24384;51.988;4.644;2023-04-08T12:59:21;102611.22;;;29.78;21.96
38630;BME280;24384;51.988;4.644;2023-04-08T13:01:46;102610.16;;;30.82;20.97
38630;BME280;24384;51.988;4.644;2023-04-08T13:04:11;102608.28;;;30.92;20.64
38630;BME280;24384;51.988;4.644;2023-04-08T13:06:37;102609.72;;;31.65;25.71
38630;BME280;24384;51.988;4.644;2023-04-08T13:09:02;102601.09;;;31.69;18.88
38630;BME280;24384;51.988;4.644;2023-04-08T13:11:27;102607.59;;;31.29;22.35